createdAt,value
2023-04-29T00:00:56.020Z,58.23
2023-04-29T00:03:24.032Z,58.25
2023-04-29T00:05:53.558Z,58.52
2023-04-29T00:08:21.667Z,58.46
2023-04-29T00:10:49.861Z,58.11
2023-04-29T00:13:17.856Z,58.16
2023-04-29T00:15:45.703Z,58.41
2023-04-29T00:18:14.140Z,58.42
2023-04-29T00:20:43.605Z,58.10
2023-04-29T00:23:13.267Z,58.47
2023-04-29T00:25:41.150Z,58.19
2023-04-29T00:28:09.388Z,58.03
2023-04-29T00:30:37.258Z,58.54
2023-04-29T00:33:05.314Z,58.37
2023-04-29T00:35:33.193Z,58.57
2023-04-29T00:38:01.046Z,58.49
2023-04-29T00:40:30.379Z,58.08
2023-04-29T00:42:58.306Z,58.55
2023-04-29T00:45:27.612Z,58.66
2023-04-29T00:47:55.514Z,58.36
2023-04-29T00:50:23.464Z,58.40
2023-04-29T00:52:52.656Z,58.57
2023-04-29T00:55:20.586Z,58.75
2023-04-29T00:57:52.405Z,59.20
2023-04-29T01:00:20.410Z,58.81
2023-04-29T01:02:48.506Z,58.76
2023-04-29T01:05:17.972Z,59.15
2023-04-29T01:07:53.656Z,59.14
2023-04-29T01:10:23.853Z,58.91
2023-04-29T01:12:55.843Z,58.94
2023-04-29T01:15:25.190Z,59.12
2023-04-29T01:18:00.355Z,59.23
2023-04-29T01:20:28.427Z,59.35
2023-04-29T01:22:56.561Z,59.24
2023-04-29T01:25:25.880Z,59.32
2023-04-29T01:27:56.878Z,59.30
2023-04-29T01:30:29.946Z,59.13
2023-04-29T01:33:01.954Z,59.40
2023-04-29T01:35:42.411Z,59.55
2023-04-29T01:38:16.177Z,59.48
2023-04-29T01:40:49.734Z,59.17
2023-04-29T01:43:18.181Z,59.44
2023-04-29T01:45:46.385Z,59.46
2023-04-29T01:48:14.330Z,59.57
2023-04-29T01:50:42.221Z,59.55
2023-04-29T01:53:10.068Z,59.53
2023-04-29T01:55:37.982Z,59.62
2023-04-29T01:58:07.268Z,59.54
2023-04-29T02:00:35.149Z,59.72
2023-04-29T02:03:03.132Z,59.42
2023-04-29T02:05:32.517Z,59.78
2023-04-29T02:08:00.495Z,59.67
2023-04-29T02:10:29.246Z,59.51
2023-04-29T02:12:57.118Z,59.69
2023-04-29T02:15:27.613Z,59.92
2023-04-29T02:17:55.733Z,59.57
2023-04-29T02:20:23.649Z,59.90
2023-04-29T02:22:51.481Z,59.70
2023-04-29T02:25:19.361Z,59.65
2023-04-29T02:27:47.371Z,59.64
2023-04-29T02:30:15.292Z,59.84
2023-04-29T02:32:44.558Z,59.95
2023-04-29T02:35:12.727Z,59.84
2023-04-29T02:37:40.553Z,59.65
2023-04-29T02:40:10.084Z,60.05
2023-04-29T02:42:37.968Z,59.73
2023-04-29T02:45:06.815Z,59.76
2023-04-29T02:47:34.723Z,59.70
2023-04-29T02:50:04.818Z,59.73
2023-04-29T02:52:32.779Z,59.73
2023-04-29T02:55:00.679Z,59.64
2023-04-29T02:57:29.634Z,60.01
2023-04-29T02:59:57.470Z,59.88
2023-04-29T03:02:25.444Z,59.80
2023-04-29T03:04:53.502Z,59.68
2023-04-29T03:07:22.741Z,59.85
2023-04-29T03:09:51.055Z,59.86
2023-04-29T03:12:19.130Z,59.59
2023-04-29T03:14:47.321Z,59.62
2023-04-29T03:17:15.328Z,59.76
2023-04-29T03:19:43.268Z,59.57
2023-04-29T03:22:11.983Z,59.94
2023-04-29T03:24:41.262Z,59.92
2023-04-29T03:27:09.159Z,59.93
2023-04-29T03:29:37.000Z,59.83
2023-04-29T03:32:05.298Z,59.94
2023-04-29T03:34:33.211Z,59.70
2023-04-29T03:37:01.368Z,59.59
2023-04-29T03:39:32.315Z,59.69
2023-04-29T03:42:01.569Z,59.63
2023-04-29T03:44:29.636Z,59.94
2023-04-29T03:46:57.494Z,59.77
2023-04-29T03:49:25.614Z,59.58
2023-04-29T03:51:53.663Z,59.94
2023-04-29T03:54:21.567Z,59.71
2023-04-29T03:56:49.451Z,59.80
2023-04-29T03:59:18.693Z,59.43
2023-04-29T04:01:46.651Z,59.84
2023-04-29T04:04:15.577Z,59.71
2023-04-29T04:06:44.234Z,59.69
2023-04-29T04:09:12.124Z,60.09
2023-04-29T04:11:40.062Z,59.75
2023-04-29T04:14:08.289Z,60.05
2023-04-29T04:16:37.985Z,59.92
2023-04-29T04:19:06.035Z,59.60
2023-04-29T04:21:33.933Z,59.53
2023-04-29T04:24:01.806Z,59.88
2023-04-29T04:26:29.666Z,59.51
2023-04-29T04:28:57.535Z,59.79
2023-04-29T04:31:25.507Z,59.54
2023-04-29T04:33:54.779Z,59.36
2023-04-29T04:36:22.685Z,59.52
2023-04-29T04:38:50.708Z,59.72
2023-04-29T04:41:18.621Z,59.66
2023-04-29T04:43:46.501Z,59.67
2023-04-29T04:46:15.102Z,59.32
2023-04-29T04:48:43.804Z,59.33
2023-04-29T04:51:13.370Z,59.67
2023-04-29T04:53:41.630Z,59.39
2023-04-29T04:56:09.989Z,59.69
2023-04-29T04:58:37.828Z,59.29
2023-04-29T05:01:05.809Z,59.68
2023-04-29T05:03:34.088Z,59.79
2023-04-29T05:06:02.205Z,59.40
2023-04-29T05:08:31.424Z,59.84
2023-04-29T05:10:59.293Z,59.91
2023-04-29T05:13:27.165Z,59.80
2023-04-29T05:15:55.040Z,59.49
2023-04-29T05:18:22.931Z,59.67
2023-04-29T05:20:50.824Z,59.59
2023-04-29T05:23:18.671Z,59.43
2023-04-29T05:25:48.179Z,59.58
2023-04-29T05:28:16.217Z,59.95
2023-04-29T05:30:44.998Z,59.95
2023-04-29T05:33:12.999Z,59.91
2023-04-29T05:35:40.845Z,59.52
2023-04-29T05:38:08.902Z,59.50
2023-04-29T05:40:36.778Z,59.94
2023-04-29T05:43:06.099Z,59.84
2023-04-29T05:45:34.003Z,59.51
2023-04-29T05:48:02.069Z,59.67
2023-04-29T05:50:29.990Z,59.61
2023-04-29T05:52:57.862Z,59.59
2023-04-29T05:55:25.868Z,59.76
2023-04-29T05:57:53.730Z,59.98
2023-04-29T06:00:23.441Z,59.54
2023-04-29T06:02:58.703Z,59.70
2023-04-29T06:05:27.640Z,59.55
2023-04-29T06:07:55.790Z,59.66
2023-04-29T06:10:23.649Z,59.92
2023-04-29T06:12:51.929Z,60.04
2023-04-29T06:15:19.862Z,59.91
2023-04-29T06:17:49.743Z,59.74
2023-04-29T06:20:18.342Z,59.83
2023-04-29T06:22:46.356Z,59.79
2023-04-29T06:25:15.039Z,59.99
2023-04-29T06:27:42.947Z,59.66
2023-04-29T06:30:11.551Z,60.06
2023-04-29T06:32:39.844Z,60.13
2023-04-29T06:35:09.948Z,59.93
2023-04-29T06:37:38.238Z,59.64
2023-04-29T06:40:07.536Z,59.97
2023-04-29T06:42:36.789Z,59.71
2023-04-29T06:45:05.336Z,59.77
2023-04-29T06:47:33.270Z,59.94
2023-04-29T06:50:01.372Z,59.86
2023-04-29T06:52:31.292Z,59.50
2023-04-29T06:54:59.198Z,59.76
2023-04-29T06:57:27.228Z,59.44
2023-04-29T06:59:55.372Z,59.62
2023-04-29T07:02:23.477Z,59.59
2023-04-29T07:04:52.723Z,59.86
2023-04-29T07:07:20.843Z,59.78
2023-04-29T07:09:52.124Z,59.72
2023-04-29T07:12:20.479Z,59.64
2023-04-29T07:14:48.451Z,59.77
2023-04-29T07:17:16.647Z,59.71
2023-04-29T07:19:44.586Z,59.65
2023-04-29T07:22:12.467Z,59.41
2023-04-29T07:24:40.627Z,59.60
2023-04-29T07:27:09.934Z,59.55
2023-04-29T07:29:38.683Z,59.33
2023-04-29T07:32:06.935Z,59.35
2023-04-29T07:34:35.089Z,59.07
2023-04-29T07:37:02.978Z,59.12
2023-04-29T07:39:31.860Z,59.15
2023-04-29T07:42:00.372Z,59.01
2023-04-29T07:44:29.766Z,58.75
2023-04-29T07:46:57.625Z,58.99
2023-04-29T07:49:26.348Z,58.65
2023-04-29T07:51:54.258Z,58.71
2023-04-29T07:54:22.439Z,58.75
2023-04-29T07:56:50.553Z,58.84
2023-04-29T07:59:18.553Z,58.59
2023-04-29T08:01:48.160Z,58.09
2023-04-29T08:04:16.207Z,58.27
2023-04-29T08:06:44.609Z,57.88
2023-04-29T08:09:18.403Z,57.87
2023-04-29T08:11:46.690Z,57.85
2023-04-29T08:14:14.660Z,57.38
2023-04-29T08:16:42.769Z,57.67
2023-04-29T08:19:12.272Z,57.08
2023-04-29T08:21:40.364Z,57.20
2023-04-29T08:24:08.494Z,56.71
2023-04-29T08:26:36.421Z,56.49
2023-04-29T08:29:04.645Z,56.30
2023-04-29T08:31:32.607Z,55.95
2023-04-29T08:34:00.753Z,55.93
2023-04-29T08:36:30.287Z,55.79
2023-04-29T08:38:58.441Z,55.49
2023-04-29T08:41:26.829Z,55.35
2023-04-29T08:43:54.720Z,54.85
2023-04-29T08:46:22.772Z,54.75
2023-04-29T08:48:51.165Z,54.46
2023-04-29T08:51:19.086Z,54.58
2023-04-29T08:53:48.454Z,54.24
2023-04-29T08:56:20.520Z,54.03
2023-04-29T08:58:48.936Z,53.85
2023-04-29T09:01:16.942Z,53.57
2023-04-29T09:03:48.396Z,53.19
2023-04-29T09:06:16.529Z,53.06
2023-04-29T09:08:44.542Z,52.98
2023-04-29T09:11:14.183Z,52.78
2023-04-29T09:13:42.465Z,52.49
2023-04-29T09:16:12.451Z,52.29
2023-04-29T09:18:44.784Z,52.34
2023-04-29T09:21:19.020Z,52.03
2023-04-29T09:23:48.726Z,52.10
2023-04-29T09:26:18.047Z,52.25
2023-04-29T09:28:47.620Z,52.04
2023-04-29T09:31:15.955Z,51.82
2023-04-29T09:33:54.525Z,51.60
2023-04-29T09:36:42.557Z,51.19
2023-04-29T09:39:13.887Z,51.16
2023-04-29T09:41:45.064Z,50.83
2023-04-29T09:44:12.940Z,50.43
2023-04-29T09:46:40.949Z,49.83
2023-04-29T09:49:24.684Z,49.66
2023-04-29T09:51:56.657Z,49.33
2023-04-29T09:54:24.832Z,49.00
2023-04-29T09:56:54.384Z,48.71
2023-04-29T09:59:22.779Z,48.64
2023-04-29T10:01:51.505Z,48.66
2023-04-29T10:04:20.205Z,48.41
2023-04-29T10:06:51.082Z,48.62
2023-04-29T10:09:19.525Z,48.41
2023-04-29T10:11:47.933Z,48.28
2023-04-29T10:14:18.285Z,48.19
2023-04-29T10:16:50.927Z,48.50
2023-04-29T10:19:27.717Z,48.24
2023-04-29T10:21:56.603Z,48.53
2023-04-29T10:24:24.513Z,48.62
2023-04-29T10:26:52.850Z,48.75
2023-04-29T10:29:22.152Z,48.60
2023-04-29T10:31:50.811Z,49.00
2023-04-29T10:34:18.838Z,48.93
2023-04-29T10:36:47.549Z,48.80
2023-04-29T10:39:21.105Z,49.03
2023-04-29T10:41:49.086Z,48.83
2023-04-29T10:44:17.234Z,48.88
2023-04-29T10:46:47.739Z,48.92
2023-04-29T10:49:15.709Z,48.81
2023-04-29T10:51:44.325Z,48.84
2023-04-29T10:54:14.198Z,48.79
2023-04-29T10:56:43.511Z,48.55
2023-04-29T10:59:13.278Z,48.41
2023-04-29T11:01:50.054Z,48.74
2023-04-29T11:04:18.985Z,48.49
2023-04-29T11:06:48.295Z,48.63
2023-04-29T11:09:19.972Z,48.56
2023-04-29T11:11:50.051Z,48.29
2023-04-29T11:14:23.039Z,48.56
2023-04-29T11:16:54.698Z,48.30
2023-04-29T11:19:23.021Z,48.03
2023-04-29T11:21:55.491Z,47.83
2023-04-29T11:24:23.416Z,47.44
2023-04-29T11:26:51.453Z,47.63
2023-04-29T11:29:19.632Z,47.37
2023-04-29T11:31:47.649Z,47.30
2023-04-29T11:34:17.023Z,47.45
2023-04-29T11:36:47.052Z,47.17
2023-04-29T11:39:15.663Z,47.45
2023-04-29T11:41:43.872Z,47.30
2023-04-29T11:44:12.762Z,47.36
2023-04-29T11:46:40.798Z,47.36
2023-04-29T11:49:09.037Z,47.29
2023-04-29T11:51:38.363Z,47.63
2023-04-29T11:54:08.173Z,47.65
2023-04-29T11:56:38.116Z,48.00
2023-04-29T11:59:08.216Z,48.02
2023-04-29T12:01:37.095Z,48.23
2023-04-29T12:04:07.423Z,48.15
2023-04-29T12:06:35.487Z,47.71
2023-04-29T12:09:05.238Z,46.93
2023-04-29T12:11:33.233Z,46.45
2023-04-29T12:14:03.743Z,46.19
2023-04-29T12:16:32.478Z,45.79
2023-04-29T12:21:28.625Z,45.97
2023-04-29T12:24:00.083Z,45.84
2023-04-29T12:26:31.509Z,46.16
2023-04-29T12:28:59.815Z,45.93
2023-04-29T12:31:34.167Z,46.02
2023-04-29T12:34:02.955Z,46.20
2023-04-29T12:36:31.599Z,46.42
2023-04-29T12:39:00.153Z,46.52
2023-04-29T12:41:39.519Z,46.69
2023-04-29T12:44:07.815Z,46.85
2023-04-29T12:46:37.112Z,46.74
2023-04-29T12:49:05.211Z,46.53
2023-04-29T12:51:33.715Z,46.44
2023-04-29T12:54:01.732Z,46.59
2023-04-29T12:56:29.658Z,46.56
2023-04-29T12:58:58.952Z,46.30
2023-04-29T13:01:27.114Z,46.29
2023-04-29T13:03:55.102Z,46.02
2023-04-29T13:06:23.089Z,45.42
2023-04-29T13:08:51.500Z,45.11
2023-04-29T13:11:20.104Z,45.23
2023-04-29T13:13:48.105Z,45.47
2023-04-29T13:16:17.533Z,45.68
2023-04-29T13:18:53.436Z,45.83
2023-04-29T13:21:32.860Z,46.15
2023-04-29T13:24:02.094Z,46.54
2023-04-29T13:26:30.293Z,46.50
2023-04-29T13:28:58.239Z,46.75
2023-04-29T13:31:28.127Z,47.10
2023-04-29T13:33:56.374Z,47.30
2023-04-29T13:36:24.287Z,47.34
2023-04-29T13:38:55.364Z,47.38
2023-04-29T13:41:26.004Z,47.31
2023-04-29T13:43:58.008Z,47.61
2023-04-29T13:46:28.942Z,47.61
2023-04-29T13:59:37.930Z,50.29
2023-04-29T14:02:21.245Z,49.35
2023-04-29T14:04:40.675Z,48.53
2023-04-29T14:07:08.646Z,45.70
2023-04-29T14:09:36.859Z,42.41
2023-04-29T14:12:05.114Z,41.79
2023-04-29T14:14:33.155Z,40.60
2023-04-29T14:17:02.403Z,39.78
2023-04-29T14:19:30.605Z,39.05
2023-04-29T14:21:58.558Z,37.71
2023-04-29T14:24:26.445Z,38.43
2023-04-29T14:26:54.449Z,38.67
2023-04-29T14:29:22.411Z,38.82
2023-04-29T14:31:50.424Z,38.98
2023-04-29T14:34:20.906Z,39.17
2023-04-29T14:36:48.808Z,39.35
2023-04-29T14:39:16.807Z,40.27
2023-04-29T14:41:44.706Z,40.55
2023-04-29T14:44:12.638Z,40.81
2023-04-29T14:46:40.684Z,41.14
2023-04-29T14:49:08.666Z,41.30
2023-04-29T14:51:38.005Z,41.83
2023-04-29T14:54:05.926Z,42.52
2023-04-29T14:56:33.813Z,42.41
2023-04-29T14:59:01.800Z,42.71
2023-04-29T15:01:32.028Z,43.33
2023-04-29T15:04:01.325Z,43.61
2023-04-29T15:06:29.537Z,43.50
2023-04-29T15:08:58.902Z,43.70
2023-04-29T15:11:27.019Z,43.75
2023-04-29T15:13:54.855Z,43.90
2023-04-29T15:16:22.883Z,43.78
2023-04-29T15:18:50.824Z,44.03
2023-04-29T15:21:18.789Z,43.91
2023-04-29T15:23:46.826Z,43.82
2023-04-29T15:26:16.110Z,44.12
2023-04-29T15:28:45.739Z,44.11
2023-04-29T15:31:14.027Z,44.05
2023-04-29T15:33:41.988Z,44.02
2023-04-29T15:36:10.169Z,44.09
2023-04-29T15:38:38.089Z,44.14
2023-04-29T15:41:06.818Z,44.28
2023-04-29T15:43:36.100Z,44.34
2023-04-29T15:46:04.080Z,44.47
2023-04-29T15:48:32.004Z,44.56
2023-04-29T15:50:59.860Z,45.02
2023-04-29T15:53:27.768Z,44.73
2023-04-29T15:55:55.703Z,44.84
2023-04-29T15:58:23.582Z,44.83
2023-04-29T16:00:53.071Z,44.90
2023-04-29T16:03:21.264Z,44.70
2023-04-29T16:05:50.878Z,44.38
2023-04-29T16:08:18.823Z,44.21
2023-04-29T16:10:46.823Z,43.52
2023-04-29T16:13:14.733Z,43.75
2023-04-29T16:15:42.665Z,43.89
2023-04-29T16:18:12.101Z,43.72
2023-04-29T16:20:39.978Z,43.70
2023-04-29T16:23:07.893Z,43.78
2023-04-29T16:25:35.792Z,43.60
2023-04-29T16:28:03.778Z,43.73
2023-04-29T16:30:31.685Z,43.82
2023-04-29T16:32:59.924Z,44.00
2023-04-29T16:35:31.012Z,44.41
2023-04-29T16:37:59.162Z,44.62
2023-04-29T16:40:27.786Z,44.77
2023-04-29T16:42:57.004Z,44.96
2023-04-29T16:45:25.163Z,45.14
2023-04-29T16:47:53.249Z,45.23
2023-04-29T16:50:21.301Z,45.29
2023-04-29T16:52:50.548Z,45.56
2023-04-29T16:55:18.874Z,45.67
2023-04-29T16:57:46.744Z,45.62
2023-04-29T17:00:15.087Z,45.37
2023-04-29T17:02:45.184Z,45.08
2023-04-29T17:05:13.148Z,45.41
2023-04-29T17:07:41.072Z,45.22
2023-04-29T17:10:11.438Z,44.83
2023-04-29T17:12:39.424Z,44.02
2023-04-29T17:15:08.426Z,42.82
2023-04-29T17:17:36.640Z,42.12
2023-04-29T17:20:04.985Z,41.44
2023-04-29T17:22:33.632Z,40.55
2023-04-29T17:25:01.742Z,40.35
2023-04-29T17:27:31.182Z,39.23
2023-04-29T17:29:59.091Z,38.55
2023-04-29T17:32:29.636Z,38.25
2023-04-29T17:34:57.761Z,38.19
2023-04-29T17:37:25.985Z,38.13
2023-04-29T17:39:54.174Z,38.17
2023-04-29T17:42:22.402Z,38.26
2023-04-29T17:44:51.683Z,38.64
2023-04-29T17:47:21.163Z,38.80
2023-04-29T17:49:49.270Z,39.32
2023-04-29T17:52:17.590Z,40.20
2023-04-29T17:54:45.488Z,40.49
2023-04-29T17:57:13.356Z,41.09
2023-04-29T17:59:41.324Z,41.34
2023-04-29T18:02:10.844Z,41.81
2023-04-29T18:04:40.606Z,42.18
2023-04-29T18:07:08.474Z,42.50
2023-04-29T18:09:36.343Z,43.03
2023-04-29T18:12:04.373Z,43.69
2023-04-29T18:14:32.278Z,44.06
2023-04-29T18:17:01.154Z,44.33
2023-04-29T18:19:30.739Z,44.58
2023-04-29T18:22:01.353Z,44.58
2023-04-29T18:24:29.349Z,45.09
2023-04-29T18:26:57.447Z,45.54
2023-04-29T18:29:25.369Z,45.86
2023-04-29T18:31:54.725Z,46.26
2023-04-29T18:34:22.978Z,46.13
2023-04-29T18:36:53.024Z,46.50
2023-04-29T18:39:20.981Z,46.86
2023-04-29T18:41:49.220Z,46.97
2023-04-29T18:44:17.178Z,47.30
2023-04-29T18:46:45.199Z,47.52
2023-04-29T18:49:18.109Z,47.82
2023-04-29T18:51:46.898Z,48.19
2023-04-29T18:54:16.999Z,48.14
2023-04-29T18:56:46.540Z,48.46
2023-04-29T18:59:18.905Z,48.46
2023-04-29T19:01:47.080Z,48.56
2023-04-29T19:04:15.210Z,48.91
2023-04-29T19:06:43.392Z,48.84
2023-04-29T19:09:11.657Z,49.20
2023-04-29T19:11:40.928Z,49.21
2023-04-29T19:14:08.835Z,49.41
2023-04-29T19:16:37.460Z,49.66
2023-04-29T19:19:05.464Z,49.62
2023-04-29T19:21:33.565Z,50.18
2023-04-29T19:24:01.439Z,50.48
2023-04-29T19:26:30.282Z,50.99
2023-04-29T19:29:00.944Z,50.84
2023-04-29T19:31:28.890Z,51.14
2023-04-29T19:33:56.805Z,51.25
2023-04-29T19:36:24.707Z,51.43
2023-04-29T19:38:52.631Z,51.72
2023-04-29T19:41:21.644Z,51.64
2023-04-29T19:43:49.558Z,51.63
2023-04-29T19:46:18.870Z,51.80
2023-04-29T19:48:46.862Z,51.80
2023-04-29T19:51:14.796Z,52.03
2023-04-29T19:53:43.357Z,52.25
2023-04-29T19:56:11.340Z,51.93
2023-04-29T19:58:39.334Z,52.07
2023-04-29T20:01:07.275Z,52.12
2023-04-29T20:03:39.277Z,52.27
2023-04-29T20:06:08.832Z,52.68
2023-04-29T20:08:36.757Z,52.89
2023-04-29T20:11:04.977Z,52.65
2023-04-29T20:13:32.864Z,52.68
2023-04-29T20:16:00.761Z,53.01
2023-04-29T20:18:28.763Z,53.20
2023-04-29T20:20:58.103Z,53.12
2023-04-29T20:23:26.268Z,53.26
2023-04-29T20:25:54.249Z,53.72
2023-04-29T20:28:22.142Z,53.71
2023-04-29T20:30:50.089Z,53.85
2023-04-29T20:33:18.081Z,53.45
2023-04-29T20:35:45.968Z,53.60
2023-04-29T20:38:15.249Z,53.79
2023-04-29T20:40:43.719Z,53.80
2023-04-29T20:43:11.638Z,54.03
2023-04-29T20:45:39.547Z,54.39
2023-04-29T20:48:07.953Z,54.23
2023-04-29T20:50:36.062Z,54.50
2023-04-29T20:53:04.067Z,54.33
2023-04-29T20:55:33.347Z,54.36
2023-04-29T20:58:01.278Z,54.67
2023-04-29T21:00:29.160Z,54.41
2023-04-29T21:02:57.090Z,54.69
2023-04-29T21:05:24.995Z,54.60
2023-04-29T21:07:52.886Z,54.71
2023-04-29T21:10:21.102Z,54.92
2023-04-29T21:12:50.401Z,55.41
2023-04-29T21:15:18.356Z,55.55
2023-04-29T21:17:46.545Z,55.66
2023-04-29T21:20:14.610Z,55.75
2023-04-29T21:22:42.487Z,55.96
2023-04-29T21:25:10.635Z,55.96
2023-04-29T21:27:38.601Z,55.95
2023-04-29T21:30:09.127Z,56.10
2023-04-29T21:32:37.058Z,56.48
2023-04-29T21:35:05.400Z,56.29
2023-04-29T21:37:33.936Z,56.90
2023-04-29T21:40:04.219Z,56.90
2023-04-29T21:42:32.424Z,56.89
2023-04-29T21:45:00.881Z,57.11
2023-04-29T21:47:30.494Z,57.05
2023-04-29T21:49:58.473Z,56.75
2023-04-29T21:52:26.448Z,57.19
2023-04-29T21:54:54.342Z,57.19
2023-04-29T21:57:29.223Z,57.38
2023-04-29T22:00:00.135Z,56.97
2023-04-29T22:02:38.026Z,57.39
2023-04-29T22:05:08.272Z,57.08
2023-04-29T22:07:36.181Z,57.26
2023-04-29T22:10:04.194Z,57.53
2023-04-29T22:12:32.228Z,57.64
2023-04-29T22:15:00.834Z,57.59
2023-04-29T22:17:28.801Z,57.75
2023-04-29T22:19:56.834Z,58.26
2023-04-29T22:22:26.167Z,57.91
2023-04-29T22:24:54.119Z,57.99
2023-04-29T22:27:22.163Z,58.01
2023-04-29T22:29:50.175Z,58.43
2023-04-29T22:32:18.484Z,58.26
2023-04-29T22:34:46.422Z,58.29
2023-04-29T22:37:14.600Z,58.55
2023-04-29T22:39:43.900Z,58.38
2023-04-29T22:42:11.803Z,58.47
2023-04-29T22:44:39.768Z,58.43
2023-04-29T22:47:07.758Z,58.03
2023-04-29T22:49:35.668Z,58.31
2023-04-29T22:52:03.549Z,58.39
2023-04-29T22:54:31.513Z,58.56
2023-04-29T22:57:00.859Z,58.20
2023-04-29T22:59:28.763Z,58.38
2023-04-29T23:01:56.651Z,58.42
2023-04-29T23:04:25.171Z,58.54
2023-04-29T23:06:53.452Z,58.49
2023-04-29T23:09:21.292Z,58.65
2023-04-29T23:11:49.135Z,58.81
2023-04-29T23:14:18.413Z,58.69
2023-04-29T23:16:46.339Z,58.37
2023-04-29T23:19:14.248Z,58.61
2023-04-29T23:21:42.128Z,58.87
2023-04-29T23:24:09.975Z,58.66
2023-04-29T23:26:37.864Z,58.58
2023-04-29T23:29:06.187Z,58.60
2023-04-29T23:31:35.509Z,58.57
2023-04-29T23:34:03.877Z,58.56
2023-04-29T23:36:31.768Z,58.67
2023-04-29T23:38:59.690Z,58.84
2023-04-29T23:41:27.575Z,58.74
2023-04-29T23:43:56.449Z,58.97
2023-04-29T23:46:25.489Z,58.88
2023-04-29T23:48:54.786Z,58.92
2023-04-29T23:51:22.676Z,58.81
2023-04-29T23:53:50.696Z,58.75
2023-04-29T23:56:18.552Z,58.79
2023-04-29T23:58:46.427Z,58.96
